Map

Track Data

SID SEASON NUMBER BASIN SUBBASIN NAME ISO_TIME NATURE LAT LON WMO_WIND WMO_PRES WMO_AGENCY TRACK_TYPE DIST2LAND LANDFALL IFLAG USA_AGENCY USA_ATCF_ID USA_LAT USA_LON USA_RECORD USA_STATUS USA_WIND USA_PRES USA_SSHS USA_R34_NE USA_R34_SE USA_R34_SW USA_R34_NW USA_R50_NE USA_R50_SE USA_R50_SW USA_R50_NW USA_R64_NE USA_R64_SE USA_R64_SW USA_R64_NW USA_POCI USA_ROCI USA_RMW USA_EYE TOKYO_LAT TOKYO_LON TOKYO_GRADE TOKYO_WIND TOKYO_PRES TOKYO_R50_DIR TOKYO_R50_LONG TOKYO_R50_SHORT TOKYO_R30_DIR TOKYO_R30_LONG TOKYO_R30_SHORT TOKYO_LAND CMA_LAT CMA_LON CMA_CAT CMA_WIND CMA_PRES HKO_LAT HKO_LON HKO_CAT HKO_WIND HKO_PRES NEWDELHI_LAT NEWDELHI_LON NEWDELHI_GRADE NEWDELHI_WIND NEWDELHI_PRES NEWDELHI_CI NEWDELHI_DP NEWDELHI_POCI REUNION_LAT REUNION_LON REUNION_TYPE REUNION_WIND REUNION_PRES REUNION_TNUM REUNION_CI REUNION_RMW REUNION_R34_NE REUNION_R34_SE REUNION_R34_SW REUNION_R34_NW REUNION_R50_NE REUNION_R50_SE REUNION_R50_SW REUNION_R50_NW REUNION_R64_NE REUNION_R64_SE REUNION_R64_SW REUNION_R64_NW BOM_LAT BOM_LON BOM_TYPE BOM_WIND BOM_PRES BOM_TNUM BOM_CI BOM_RMW BOM_R34_NE BOM_R34_SE BOM_R34_SW BOM_R34_NW BOM_R50_NE BOM_R50_SE BOM_R50_SW BOM_R50_NW BOM_R64_NE BOM_R64_SE BOM_R64_SW BOM_R64_NW BOM_ROCI BOM_POCI BOM_EYE BOM_POS_METHOD BOM_PRES_METHOD NADI_LAT NADI_LON NADI_CAT NADI_WIND NADI_PRES WELLINGTON_LAT WELLINGTON_LON WELLINGTON_WIND WELLINGTON_PRES DS824_LAT DS824_LON DS824_STAGE DS824_WIND DS824_PRES TD9636_LAT TD9636_LON TD9636_STAGE TD9636_WIND TD9636_PRES TD9635_LAT TD9635_LON TD9635_WIND TD9635_PRES TD9635_ROCI NEUMANN_LAT NEUMANN_LON NEUMANN_CLASS NEUMANN_WIND NEUMANN_PRES MLC_LAT MLC_LON MLC_CLASS MLC_WIND MLC_PRES USA_GUST BOM_GUST BOM_GUST_PER REUNION_GUST REUNION_GUST_PER USA_SEAHGT USA_SEARAD_NE USA_SEARAD_SE USA_SEARAD_SW USA_SEARAD_NW STORM_SPEED STORM_DIR
1862052S08080 1862 6 SI MM NOT_NAMED 1862-02-21 06:00:00 NR -7.80000 79.6000 reunion main 1539 1539 _____O________ -1 -7.80000 79.6000 99 9.90000 4 229
1862052S08080 1862 6 SI MM NOT_NAMED 1862-02-21 09:00:00 NR -7.94542 79.4350 main 1552 1552 _____P________ -1 -7.94542 79.4350 99 4 228
1862052S08080 1862 6 SI MM NOT_NAMED 1862-02-21 12:00:00 NR -8.09362 79.2667 main 1575 1575 _____P________ -1 -8.09362 79.2667 99 5 228
1862052S08080 1862 6 SI MM NOT_NAMED 1862-02-21 15:00:00 NR -8.24743 79.0917 main 1588 1588 _____P________ -1 -8.24743 79.0917 99 4 223
1862052S08080 1862 6 SI MM NOT_NAMED 1862-02-21 18:00:00 NR -8.38776 78.9853 main 1612 1612 _____P____O___ -1 -8.40971 78.9067 99 -8.30000 79.3000 7 4 221
1862052S08080 1862 6 SI MM NOT_NAMED 1862-02-21 21:00:00 NR -8.56597 78.8156 main 1637 1637 _____P____P___ -1 -8.58327 78.7083 99 -8.53138 79.0300 7 5 225
1862052S08080 1862 6 SI MM NOT_NAMED 1862-02-22 00:00:00 NR -8.76632 78.6067 main 1662 1662 _____P____P___ -1 -8.77096 78.4934 99 -8.76015 78.7579 7 6 227
1862052S08080 1862 6 SI MM NOT_NAMED 1862-02-22 03:00:00 NR -8.97972 78.3701 main 1687 1687 _____P____P___ -1 -8.97559 78.2584 99 -8.98384 78.4818 7 7 229
1862052S08080 1862 6 SI MM NOT_NAMED 1862-02-22 06:00:00 NR -9.20000 78.1000 reunion main 1714 1714 _____O____O___ -1 -9.20000 78.0000 99 9.90000 -9.20000 78.2000 7 7 231
1862052S08080 1862 6 SI MM NOT_NAMED 1862-02-22 09:00:00 NR -9.42720 77.8137 main 1742 1742 _____P____P___ -1 -9.44572 77.7164 99 -9.40868 77.9110 7 7 231
1862052S08080 1862 6 SI MM NOT_NAMED 1862-02-22 12:00:00 NR -9.66458 77.5134 main 1781 1781 _____P____P___ -1 -9.70925 77.4121 99 -9.61990 77.6146 7 8 231
1862052S08080 1862 6 SI MM NOT_NAMED 1862-02-22 15:00:00 NR -9.91601 77.2021 main 1810 1810 _____P____P___ -1 -9.98585 77.0932 99 -9.84617 77.3110 7 8 230
1862052S08080 1862 6 SI MM NOT_NAMED 1862-02-22 18:00:00 NR -10.1854 76.8831 main 1850 1850 _____P____O___ -1 -10.2708 76.7661 99 -10.1000 77.0000 7 9 228
1862052S08080 1862 6 SI MM NOT_NAMED 1862-02-22 21:00:00 NR -10.4880 76.5495 main 1892 1892 _____P____P___ -1 -10.5593 76.4369 99 -10.4166 76.6621 7 9 227
1862052S08080 1862 6 SI MM NOT_NAMED 1862-02-23 00:00:00 NR -10.8022 76.2162 main 1933 1933 _____P____P___ -1 -10.8468 76.1119 99 -10.7576 76.3204 7 9 226
1862052S08080 1862 6 SI MM NOT_NAMED 1862-02-23 03:00:00 NR -11.1117 75.8955 main 1974 1974 _____P____P___ -1 -11.1286 75.7975 99 -11.0948 75.9934 7 9 225
1862052S08080 1862 6 SI MM NOT_NAMED 1862-02-23 06:00:00 NR -11.4000 75.6000 reunion main 2015 2015 _____O____O___ -1 -11.4000 75.5000 99 9.90000 -11.4000 75.7000 7 7 225
1862052S08080 1862 6 SI MM NOT_NAMED 1862-02-23 09:00:00 NR -11.6268 75.3623 main 2043 2043 _____P____P___ -1 -11.6220 75.2528 99 -11.6316 75.4717 7 6 226
1862052S08080 1862 6 SI MM NOT_NAMED 1862-02-23 12:00:00 NR -11.8314 75.1494 main 2074 2056 _____P____P___ -1 -11.8331 75.0219 99 -11.8297 75.2769 7 6 225
1862052S08080 1862 6 SI MM NOT_NAMED 1862-02-23 15:00:00 NR -12.0261 74.9480 main 2047 2026 _____P____P___ -1 -12.0393 74.8024 99 -12.0129 75.0937 7 6 225
1862052S08080 1862 6 SI MM NOT_NAMED 1862-02-23 18:00:00 NR -12.2231 74.7447 main 2017 1987 _____P____O___ -1 -12.2462 74.5893 99 -12.2000 74.9000 7 6 226
1862052S08080 1862 6 SI MM NOT_NAMED 1862-02-23 21:00:00 NR -12.4287 74.5289 main 1987 1957 _____P____P___ -1 -12.4599 74.3776 99 -12.3974 74.6803 7 6 226
1862052S08080 1862 6 SI MM NOT_NAMED 1862-02-24 00:00:00 NR -12.6455 74.3033 main 1957 1922 _____P____P___ -1 -12.6862 74.1622 99 -12.6048 74.4444 7 6 225
1862052S08080 1862 6 SI MM NOT_NAMED 1862-02-24 03:00:00 NR -12.8829 74.0622 main 1922 1883 _____P____P___ -1 -12.9310 73.9381 99 -12.8348 74.1864 7 7 224
1862052S08080 1862 6 SI MM NOT_NAMED 1862-02-24 06:00:00 NR -13.1500 73.8000 reunion main 1883 1834 _____O____O___ -1 -13.2000 73.7000 99 9.90000 -13.1000 73.9000 7 8 224
1862052S08080 1862 6 SI MM NOT_NAMED 1862-02-24 09:00:00 NR -13.4726 73.4693 main 1834 1780 _____P____P___ -1 -13.5349 73.3799 99 -13.4102 73.5587 7 10 225
1862052S08080 1862 6 SI MM NOT_NAMED 1862-02-24 12:00:00 NR -13.8256 73.1169 main 1780 1732 _____P____P___ -1 -13.8959 73.0409 99 -13.7553 73.1929 7 10 223
1862052S08080 1862 6 SI MM NOT_NAMED 1862-02-24 15:00:00 NR -14.1982 72.7629 main 1732 1674 _____P____P___ -1 -14.2738 72.6952 99 -14.1227 72.8305 7 10 222
1862052S08080 1862 6 SI MM NOT_NAMED 1862-02-24 18:00:00 NR -14.5797 72.4275 main 1674 1630 _____P____O___ -1 -14.6594 72.3550 99 -14.5000 72.5000 7 10 219
1862052S08080 1862 6 SI MM NOT_NAMED 1862-02-24 21:00:00 NR -14.9659 72.1177 main 1626 1593 _____P____P___ -1 -15.0438 72.0327 99 -14.8880 72.2026 7 10 216
1862052S08080 1862 6 SI MM NOT_NAMED 1862-02-25 00:00:00 NR -15.3489 71.8431 main 1583 1546 _____P____P___ -1 -15.4179 71.7410 99 -15.2799 71.9452 7 9 213
1862052S08080 1862 6 SI MM NOT_NAMED 1862-02-25 03:00:00 NR -15.7149 71.6164 main 1546 1524 _____P____P___ -1 -15.7730 71.4925 99 -15.6568 71.7402 7 8 208
1862052S08080 1862 6 SI MM NOT_NAMED 1862-02-25 06:00:00 NR -16.0500 71.4500 reunion main 1524 1503 _____O____O___ -1 -16.1000 71.3000 99 9.90000 -16.0000 71.6000 7 7 203
1862052S08080 1862 6 SI MM NOT_NAMED 1862-02-25 09:00:00 NR -16.3229 71.3543 main 1503 1482 _____P____P___ -1 -16.3560 71.1819 99 -16.2898 71.5267 7 5 194
1862052S08080 1862 6 SI MM NOT_NAMED 1862-02-25 12:00:00 NR -16.5652 71.3168 main 1482 1475 _____P____P___ -1 -16.5855 71.1167 99 -16.5448 71.5169 7 5 184
1862052S08080 1862 6 SI MM NOT_NAMED 1862-02-25 15:00:00 NR -16.7865 71.3235 main 1475 1472 _____P____P___ -1 -16.7956 71.0983 99 -16.7774 71.5487 7 4 175
1862052S08080 1862 6 SI MM NOT_NAMED 1862-02-25 18:00:00 NR -16.9967 71.3604 main 1479 1472 _____P____O___ -1 -16.9934 71.1209 99 -17.0000 71.6000 7 4 170
1862052S08080 1862 6 SI MM NOT_NAMED 1862-02-25 21:00:00 NR -17.1988 71.3970 main 1472 1466 _____P____P___ -1 -17.1857 71.1784 99 -17.2118 71.6156 7 4 167
1862052S08080 1862 6 SI MM NOT_NAMED 1862-02-26 00:00:00 NR -17.3998 71.4563 main 1477 1471 _____P____P___ -1 -17.3796 71.2647 99 -17.4199 71.6479 7 4 162
1862052S08080 1862 6 SI MM NOT_NAMED 1862-02-26 03:00:00 NR -17.6126 71.5401 main 1471 1471 _____P____P___ -1 -17.5821 71.3739 99 -17.6430 71.7063 7 5 158
1862052S08080 1862 6 SI MM NOT_NAMED 1862-02-26 06:00:00 NR -17.8500 71.6500 reunion main 1487 1479 _____O____O___ -1 -17.8000 71.5000 99 9.90000 -17.9000 71.8000 7 6 158
1862052S08080 1862 6 SI MM NOT_NAMED 1862-02-26 09:00:00 NR -18.1401 71.7651 main 1490 1485 _____P____P___ -1 -18.0498 71.5834 99 -18.2304 71.9468 7 7 158
1862052S08080 1862 6 SI MM NOT_NAMED 1862-02-26 12:00:00 NR -18.4518 71.9067 main 1491 1491 _____P____P___ -1 -18.3110 71.6866 99 -18.5927 72.1269 7 7 156
1862052S08080 1862 6 SI MM NOT_NAMED 1862-02-26 15:00:00 NR -18.7709 72.0648 main 1507 1505 _____P____P___ -1 -18.5833 71.8109 99 -18.9586 72.3186 7 7 154
1862052S08080 1862 6 SI MM NOT_NAMED 1862-02-26 18:00:00 NR -19.0832 72.2289 main 1512 1512 _____P____O___ -1 -18.8664 71.9578 99 -19.3000 72.5000 7 7 155
1862052S08080 1862 6 SI MM NOT_NAMED 1862-02-26 21:00:00 NR -19.3610 72.3623 main 1529 1528 _____P____P___ -1 -19.1599 72.1288 99 -19.5621 72.5958 7 6 155
1862052S08080 1862 6 SI MM NOT_NAMED 1862-02-27 00:00:00 NR -19.6315 72.5046 main 1537 1536 _____P____P___ -1 -19.4636 72.3251 99 -19.7993 72.6842 7 6 152
1862052S08080 1862 6 SI MM NOT_NAMED 1862-02-27 03:00:00 NR -19.9070 72.6769 main 1555 1555 _____P____P___ -1 -19.7771 72.5483 99 -20.0369 72.8054 7 7 147
1862052S08080 1862 6 SI MM NOT_NAMED 1862-02-27 06:00:00 NR -20.2000 72.9000 reunion main 1574 1574 _____O____O___ -1 -20.1000 72.8000 99 9.90000 -20.3000 73.0000 7 8 141
1862052S08080 1862 6 SI MM NOT_NAMED 1862-02-27 09:00:00 NR -20.5402 73.2187 main 1604 1604 _____P____P___ -1 -20.4545 73.1010 99 -20.6259 73.3364 7 10 137
1862052S08080 1862 6 SI MM NOT_NAMED 1862-02-27 12:00:00 NR -20.9007 73.5915 main 1645 1645 _____P____P___ -1 -20.8229 73.4367 99 -20.9784 73.7464 7 10 135
1862052S08080 1862 6 SI MM NOT_NAMED 1862-02-27 15:00:00 NR -21.2695 73.9901 main 1686 1686 _____P____P___ -1 -21.1974 73.7969 99 -21.3416 74.1834 7 10 135
1862052S08080 1862 6 SI MM NOT_NAMED 1862-02-27 18:00:00 NR -21.6353 74.3857 main 1728 1728 _____P____O___ -1 -21.5705 74.1714 99 -21.7000 74.6000 7 10 135
1862052S08080 1862 6 SI MM NOT_NAMED 1862-02-27 21:00:00 NR -21.9884 74.7545 main 1771 1771 _____P____P___ -1 -21.9347 74.5497 99 -22.0421 74.9593 7 9 137
1862052S08080 1862 6 SI MM NOT_NAMED 1862-02-28 00:00:00 NR -22.3198 75.0696 main 1804 1804 _____P____P___ -1 -22.2825 74.9211 99 -22.3695 75.2676 7 9 139
1862052S08080 1862 6 SI MM NOT_NAMED 1862-02-28 03:00:00 NR -22.6335 75.3639 main 1837 1837 _____P____P___ -1 -22.6067 75.2749 99 -22.6873 75.5420 7 8 139
1862052S08080 1862 6 SI MM NOT_NAMED 1862-02-28 06:00:00 NR -22.9200 75.6400 reunion main 1861 1861 _____O____O___ -1 -22.9000 75.6000 99 9.90000 -23.0000 75.8000 7 7 137
1862052S08080 1862 6 SI MM NOT_NAMED 1862-02-28 09:00:00 NR -23.1573 75.8880 main 1895 1895 _____P________ -1 -23.1573 75.8880 99 7 7 135
1862052S08080 1862 6 SI MM NOT_NAMED 1862-02-28 12:00:00 NR -23.3816 76.1409 main 1918 1918 _____P________ -1 -23.3816 76.1409 99 7 6 134
1862052S08080 1862 6 SI MM NOT_NAMED 1862-02-28 15:00:00 NR -23.5777 76.3637 main 1951 1951 _____P________ -1 -23.5777 76.3637 99 7 5 134
1862052S08080 1862 6 SI MM NOT_NAMED 1862-02-28 18:00:00 NR -23.7502 76.5613 main 1974 1974 _____P________ -1 -23.7502 76.5613 99 5 134
1862052S08080 1862 6 SI MM NOT_NAMED 1862-02-28 21:00:00 NR -23.9041 76.7386 main 1986 1986 _____P________ -1 -23.9041 76.7386 99 4 133
1862052S08080 1862 6 SI MM NOT_NAMED 1862-03-01 00:00:00 NR -24.0439 76.9007 main 2007 2007 _____P________ -1 -24.0439 76.9007 99 4 133
1862052S08080 1862 6 SI MM NOT_NAMED 1862-03-01 03:00:00 NR -24.1743 77.0528 main 2030 2030 _____P________ -1 -24.1743 77.0528 99 4 133
1862052S08080 1862 6 SI MM NOT_NAMED 1862-03-01 06:00:00 NR -24.3000 77.2000 reunion main 2042 _____O________ -1 -24.3000 77.2000 99 9.90000 4 134

About IBTrACS Database

This database is a web-friendly format of International Best Track Archive for Climate Stewardship (IBTrACS), a global best track data archive curated by NOAA dating back to 1842.

Updated: 2021-10-27